createdAt,value
2023-03-05T00:01:24.470Z,8.60
2023-03-05T00:03:53.257Z,8.60
2023-03-05T00:06:21.589Z,8.50
2023-03-05T00:08:49.124Z,8.60
2023-03-05T00:11:16.690Z,8.50
2023-03-05T00:13:45.189Z,8.50
2023-03-05T00:16:14.992Z,8.50
2023-03-05T00:18:42.220Z,8.50
2023-03-05T00:21:31.960Z,8.50
2023-03-05T00:24:03.362Z,8.50
2023-03-05T00:26:31.532Z,8.50
2023-03-05T00:28:58.941Z,8.50
2023-03-05T00:31:30.667Z,8.50
2023-03-05T00:34:06.654Z,8.50
2023-03-05T00:36:34.505Z,8.50
2023-03-05T00:39:01.769Z,8.50
2023-03-05T00:41:28.783Z,8.40
2023-03-05T00:43:55.859Z,8.40
2023-03-05T00:46:23.374Z,8.40
2023-03-05T00:48:50.290Z,8.40
2023-03-05T00:51:17.162Z,8.40
2023-03-05T00:53:44.011Z,8.40
2023-03-05T00:56:11.343Z,8.40
2023-03-05T00:58:38.260Z,8.30
2023-03-05T01:01:06.433Z,8.30
2023-03-05T01:03:34.890Z,8.30
2023-03-05T01:06:05.207Z,8.40
2023-03-05T01:08:32.130Z,8.40
2023-03-05T01:10:58.886Z,8.30
2023-03-05T01:13:26.157Z,8.30
2023-03-05T01:15:53.260Z,8.30
2023-03-05T01:18:20.689Z,8.30
2023-03-05T01:20:48.393Z,8.30
2023-03-05T01:23:15.977Z,8.30
2023-03-05T01:25:43.298Z,8.30
2023-03-05T01:28:10.682Z,8.30
2023-03-05T01:30:37.686Z,8.30
2023-03-05T01:33:05.788Z,8.30
2023-03-05T01:35:32.558Z,8.30
2023-03-05T01:37:59.414Z,8.30
2023-03-05T01:40:29.725Z,8.30
2023-03-05T01:43:27.561Z,8.30
2023-03-05T01:46:13.244Z,8.30
2023-03-05T01:48:42.259Z,8.20
2023-03-05T01:51:09.151Z,8.20
2023-03-05T01:53:37.104Z,8.20
2023-03-05T01:56:04.199Z,8.20
2023-03-05T01:58:31.257Z,8.20
2023-03-05T02:00:58.344Z,8.20
2023-03-05T02:03:26.024Z,8.20
2023-03-05T02:05:53.730Z,8.20
2023-03-05T02:08:22.332Z,8.20
2023-03-05T02:10:55.504Z,8.20
2023-03-05T02:13:28.670Z,8.20
2023-03-05T02:15:59.704Z,8.20
2023-03-05T02:18:27.236Z,8.20
2023-03-05T02:20:57.114Z,8.20
2023-03-05T02:23:29.662Z,8.20
2023-03-05T02:25:57.063Z,8.20
2023-03-05T02:28:47.560Z,8.20
2023-03-05T02:31:18.210Z,8.20
2023-03-05T02:33:46.938Z,8.20
2023-03-05T02:36:13.992Z,8.10
2023-03-05T02:38:42.673Z,8.10
2023-03-05T02:41:09.742Z,8.10
2023-03-05T02:43:36.623Z,8.20
2023-03-05T02:46:04.046Z,8.10
2023-03-05T02:48:31.153Z,8.10
2023-03-05T02:50:58.500Z,8.10
2023-03-05T02:53:26.430Z,8.10
2023-03-05T02:55:53.268Z,8.10
2023-03-05T02:58:20.524Z,8.10
2023-03-05T03:00:47.563Z,8.10
2023-03-05T03:03:15.054Z,8.10
2023-03-05T03:05:44.066Z,8.00
2023-03-05T03:08:11.460Z,8.10
2023-03-05T03:10:38.779Z,8.00
2023-03-05T03:13:05.617Z,8.00
2023-03-05T03:15:32.911Z,8.00
2023-03-05T03:17:59.737Z,8.00
2023-03-05T03:20:26.699Z,8.00
2023-03-05T03:22:53.792Z,8.00
2023-03-05T03:25:23.160Z,8.10
2023-03-05T03:27:50.214Z,8.00
2023-03-05T03:30:17.625Z,8.00
2023-03-05T03:32:44.971Z,8.00
2023-03-05T03:35:13.453Z,8.00
2023-03-05T03:37:40.573Z,8.00
2023-03-05T03:40:08.326Z,8.00
2023-03-05T03:42:35.167Z,8.00
2023-03-05T03:45:02.582Z,8.00
2023-03-05T03:47:30.465Z,7.90
2023-03-05T03:49:58.812Z,7.90
2023-03-05T03:52:26.651Z,7.90
2023-03-05T03:54:55.834Z,8.00
2023-03-05T03:57:24.046Z,7.90
2023-03-05T03:59:51.135Z,7.90
2023-03-05T04:02:18.177Z,7.90
2023-03-05T04:04:45.125Z,7.90
2023-03-05T04:07:12.215Z,7.90
2023-03-05T04:09:39.436Z,7.90
2023-03-05T04:12:07.959Z,7.80
2023-03-05T04:14:34.958Z,7.90
2023-03-05T04:17:01.920Z,7.90
2023-03-05T04:19:30.764Z,7.90
2023-03-05T04:21:59.105Z,7.90
2023-03-05T04:24:27.159Z,7.90
2023-03-05T04:26:54.342Z,7.90
2023-03-05T04:29:21.120Z,7.80
2023-03-05T04:31:48.179Z,7.80
2023-03-05T04:34:19.398Z,7.80
2023-03-05T04:36:56.456Z,7.80
2023-03-05T04:39:34.779Z,7.80
2023-03-05T05:00:59.036Z,7.70
2023-03-05T05:07:44.543Z,7.70
2023-03-05T05:10:18.895Z,7.70
2023-03-05T05:18:25.721Z,7.60
2023-03-05T05:20:54.698Z,7.60
2023-03-05T05:23:21.517Z,7.60
2023-03-05T05:25:59.136Z,7.60
2023-03-05T05:28:26.440Z,7.60
2023-03-05T05:30:53.593Z,7.60
2023-03-05T05:33:22.729Z,7.60
2023-03-05T05:35:50.355Z,7.60
2023-03-05T05:38:17.431Z,7.60
2023-03-05T05:40:44.292Z,7.60
2023-03-05T05:43:11.129Z,7.60
2023-03-05T05:45:38.643Z,7.60
2023-03-05T05:48:05.705Z,7.60
2023-03-05T05:50:32.570Z,7.60
2023-03-05T05:52:59.413Z,7.60
2023-03-05T05:55:27.635Z,7.50
2023-03-05T05:57:54.479Z,7.50
2023-03-05T06:00:21.799Z,7.50
2023-03-05T06:02:48.619Z,7.50
2023-03-05T06:05:15.675Z,7.60
2023-03-05T06:07:43.707Z,7.50
2023-03-05T06:10:11.195Z,7.50
2023-03-05T06:12:38.168Z,7.50
2023-03-05T06:15:08.781Z,7.50
2023-03-05T06:17:35.575Z,7.50
2023-03-05T06:20:04.413Z,7.50
2023-03-05T06:22:31.277Z,7.50
2023-03-05T06:24:58.076Z,7.50
2023-03-05T06:27:24.786Z,7.50
2023-03-05T06:29:54.943Z,7.50
2023-03-05T06:32:21.778Z,7.50
2023-03-05T06:34:48.854Z,7.50
2023-03-05T06:37:15.659Z,7.40
2023-03-05T06:39:43.938Z,7.40
2023-03-05T06:42:11.127Z,7.40
2023-03-05T06:44:41.620Z,7.40
2023-03-05T06:47:11.131Z,7.40
2023-03-05T06:49:39.207Z,7.40
2023-03-05T06:52:07.070Z,7.40
2023-03-05T06:54:36.310Z,7.40
2023-03-05T06:57:03.077Z,7.40
2023-03-05T06:59:29.796Z,7.40
2023-03-05T07:01:56.644Z,7.40
2023-03-05T07:04:24.502Z,7.40
2023-03-05T07:06:52.742Z,7.40
2023-03-05T07:09:20.654Z,7.40
2023-03-05T07:11:49.034Z,7.40
2023-03-05T07:14:15.960Z,7.40
2023-03-05T07:16:42.902Z,7.40
2023-03-05T07:19:11.377Z,7.50
2023-03-05T07:24:36.055Z,7.40
2023-03-05T07:27:03.293Z,7.50
2023-03-05T07:29:30.050Z,7.40
2023-03-05T07:31:56.885Z,7.40
2023-03-05T07:34:26.156Z,7.40
2023-03-05T07:36:54.037Z,7.40
2023-03-05T07:39:20.932Z,7.40
2023-03-05T07:41:51.040Z,7.40
2023-03-05T07:44:18.766Z,7.40
2023-03-05T07:46:45.834Z,7.30
2023-03-05T07:49:12.620Z,7.30
2023-03-05T07:51:41.298Z,7.30
2023-03-05T07:54:08.246Z,7.30
2023-03-05T07:56:36.209Z,7.30
2023-03-05T07:59:07.431Z,7.40
2023-03-05T08:01:35.235Z,7.40
2023-03-05T08:04:02.998Z,7.50
2023-03-05T08:06:30.178Z,7.40
2023-03-05T08:08:58.421Z,7.40
2023-03-05T08:11:26.758Z,7.50
2023-03-05T08:13:53.709Z,7.50
2023-03-05T08:16:21.869Z,7.50
2023-03-05T08:18:49.124Z,7.50
2023-03-05T08:21:21.738Z,7.50
2023-03-05T08:23:51.194Z,7.60
2023-03-05T08:26:21.010Z,7.60
2023-03-05T08:28:48.920Z,7.50
2023-03-05T08:31:23.172Z,7.40
2023-03-05T09:00:06.371Z,7.80
2023-03-05T09:02:33.650Z,7.80
2023-03-05T09:05:00.442Z,7.90
2023-03-05T09:07:27.226Z,7.90
2023-03-05T09:09:54.110Z,7.90
2023-03-05T09:12:20.947Z,7.90
2023-03-05T09:14:47.773Z,8.00
2023-03-05T09:17:17.629Z,8.10
2023-03-05T09:19:44.394Z,8.00
2023-03-05T09:22:11.274Z,8.10
2023-03-05T09:24:38.305Z,8.10
2023-03-05T09:27:05.396Z,8.10
2023-03-05T09:29:32.341Z,8.20
2023-03-05T09:32:00.933Z,8.20
2023-03-05T09:34:27.754Z,8.20
2023-03-05T09:36:54.481Z,8.30
2023-03-05T09:39:21.235Z,8.30
2023-03-05T09:42:18.920Z,8.30
2023-03-05T09:45:01.226Z,8.40
2023-03-05T09:47:51.924Z,8.30
2023-03-05T09:50:36.340Z,8.40
2023-03-05T09:53:11.909Z,8.40
2023-03-05T09:55:42.577Z,8.50
2023-03-05T09:58:21.910Z,8.40
2023-03-05T10:01:00.524Z,8.50
2023-03-05T10:03:57.524Z,8.50
2023-03-05T10:06:56.907Z,8.50
2023-03-05T10:10:03.588Z,8.60
2023-03-05T10:12:42.763Z,8.60
2023-03-05T10:15:12.104Z,8.70
2023-03-05T10:18:09.659Z,8.70
2023-03-05T10:20:56.264Z,8.60
2023-03-05T10:24:00.837Z,8.70
2023-03-05T10:26:55.739Z,8.80
2023-03-05T10:29:51.529Z,8.90
2023-03-05T10:32:33.172Z,9.00
2023-03-05T10:35:13.968Z,9.00
2023-03-05T10:37:56.008Z,9.00
2023-03-05T10:40:42.794Z,9.00
2023-03-05T10:43:34.804Z,9.00
2023-03-05T10:46:04.331Z,9.10
2023-03-05T10:48:50.776Z,9.10
2023-03-05T10:51:27.010Z,9.20
2023-03-05T10:53:59.559Z,9.40
2023-03-05T10:56:28.973Z,9.20
2023-03-05T10:58:55.870Z,9.30
2023-03-05T11:01:28.591Z,9.40
2023-03-05T11:04:03.902Z,9.40
2023-03-05T11:06:50.972Z,9.40
2023-03-05T11:09:33.836Z,9.40
2023-03-05T11:12:20.722Z,9.30
2023-03-05T11:15:02.389Z,9.30
2023-03-05T11:17:32.980Z,9.30
2023-03-05T11:20:30.509Z,9.40
2023-03-05T11:23:19.669Z,9.40
2023-03-05T11:26:03.151Z,9.40
2023-03-05T11:28:44.574Z,9.40
2023-03-05T11:31:17.799Z,9.40
2023-03-05T11:34:17.427Z,9.40
2023-03-05T11:37:03.788Z,9.40
2023-03-05T11:39:34.122Z,9.40
2023-03-05T11:42:12.096Z,9.40
2023-03-05T11:44:47.934Z,9.30
2023-03-05T11:47:47.426Z,9.40
2023-03-05T11:50:23.701Z,9.40
2023-03-05T11:53:01.780Z,9.40
2023-03-05T11:55:42.558Z,9.30
2023-03-05T11:58:28.319Z,9.40
2023-03-05T12:00:56.538Z,9.40
2023-03-05T12:03:31.514Z,9.40
2023-03-05T12:06:04.659Z,9.40
2023-03-05T12:08:35.935Z,9.30
2023-03-05T12:11:13.665Z,9.30
2023-03-05T12:13:54.685Z,9.30
2023-03-05T12:16:41.471Z,9.20
2023-03-05T12:19:33.034Z,9.30
2023-03-05T12:22:00.560Z,9.30
2023-03-05T12:24:28.501Z,9.30
2023-03-05T12:27:04.206Z,9.30
2023-03-05T12:29:50.944Z,9.30
2023-03-05T12:32:31.521Z,9.40
2023-03-05T12:35:01.576Z,9.40
2023-03-05T12:37:28.404Z,9.40
2023-03-05T12:40:09.042Z,9.40
2023-03-05T12:42:59.920Z,9.40
2023-03-05T12:45:31.131Z,9.40
2023-03-05T12:48:00.395Z,9.40
2023-03-05T12:50:28.272Z,9.40
2023-03-05T12:53:04.995Z,9.40
2023-03-05T12:55:40.033Z,9.40
2023-03-05T12:58:42.853Z,9.50
2023-03-05T13:01:13.502Z,9.50
2023-03-05T13:03:53.000Z,9.50
2023-03-05T13:06:35.415Z,9.60
2023-03-05T13:09:18.527Z,9.60
2023-03-05T13:11:49.574Z,9.60
2023-03-05T13:14:36.215Z,9.60
2023-03-05T13:17:23.624Z,9.60
2023-03-05T13:19:50.742Z,9.60
2023-03-05T13:22:18.608Z,9.60
2023-03-05T13:24:46.934Z,9.60
2023-03-05T13:27:24.978Z,9.50
2023-03-05T13:29:53.504Z,9.50
2023-03-05T13:32:31.247Z,9.50
2023-03-05T13:35:00.474Z,9.50
2023-03-05T13:37:31.704Z,9.40
2023-03-05T13:40:28.671Z,9.50
2023-03-05T13:43:08.346Z,9.50
2023-03-05T13:45:35.195Z,9.50
2023-03-05T13:48:05.687Z,9.50
2023-03-05T13:50:34.907Z,9.50
2023-03-05T13:53:21.875Z,9.50
2023-03-05T13:55:55.413Z,9.50
2023-03-05T13:58:48.842Z,9.50
2023-03-05T14:01:15.978Z,9.60
2023-03-05T14:03:43.275Z,9.50
2023-03-05T14:06:12.585Z,9.50
2023-03-05T14:08:44.145Z,9.50
2023-03-05T14:11:18.749Z,9.60
2023-03-05T14:13:46.991Z,9.50
2023-03-05T14:16:32.842Z,9.50
2023-03-05T14:19:02.639Z,9.50
2023-03-05T14:21:48.999Z,9.60
2023-03-05T14:24:27.690Z,9.50
2023-03-05T14:27:04.337Z,9.60
2023-03-05T14:29:34.950Z,9.60
2023-03-05T14:32:07.895Z,9.60
2023-03-05T14:34:38.250Z,9.60
2023-03-05T14:37:23.926Z,9.60
2023-03-05T14:39:57.713Z,9.70
2023-03-05T14:42:32.561Z,9.70
2023-03-05T14:45:19.115Z,9.70
2023-03-05T14:47:49.371Z,9.80
2023-03-05T14:50:28.098Z,9.80
2023-03-05T14:53:03.422Z,9.80
2023-03-05T14:55:34.999Z,9.70
2023-03-05T14:58:25.988Z,9.80
2023-03-05T15:00:54.080Z,9.70
2023-03-05T15:03:22.497Z,9.80
2023-03-05T15:05:53.489Z,9.70
2023-03-05T15:08:27.170Z,9.70
2023-03-05T15:10:55.735Z,9.70
2023-03-05T15:13:22.817Z,9.70
2023-03-05T15:15:51.325Z,9.80
2023-03-05T15:18:21.102Z,9.80
2023-03-05T15:20:50.050Z,9.70
2023-03-05T15:23:17.007Z,9.80
2023-03-05T15:25:44.020Z,9.80
2023-03-05T15:28:11.082Z,9.70
2023-03-05T15:30:42.240Z,9.70
2023-03-05T15:33:11.485Z,9.70
2023-03-05T15:35:38.735Z,9.60
2023-03-05T15:38:05.798Z,9.60
2023-03-05T15:40:33.543Z,9.50
2023-03-05T15:43:01.203Z,9.50
2023-03-05T15:45:31.494Z,9.50
2023-03-05T15:47:58.531Z,9.50
2023-03-05T15:50:25.749Z,9.50
2023-03-05T15:52:54.386Z,9.50
2023-03-05T15:55:21.414Z,9.50
2023-03-05T15:57:50.279Z,9.50
2023-03-05T16:00:22.095Z,9.50
2023-03-05T16:02:50.585Z,9.50
2023-03-05T16:05:18.968Z,9.40
2023-03-05T16:07:49.196Z,9.50
2023-03-05T16:10:21.825Z,9.50
2023-03-05T16:12:52.488Z,9.40
2023-03-05T16:15:21.431Z,9.40
2023-03-05T16:17:52.626Z,9.40
2023-03-05T16:20:20.164Z,9.40
2023-03-05T16:22:47.572Z,9.40
2023-03-05T16:25:14.424Z,9.40
2023-03-05T16:27:44.459Z,9.40
2023-03-05T16:30:13.921Z,9.40
2023-03-05T16:32:47.112Z,9.40
2023-03-05T16:35:14.199Z,9.40
2023-03-05T16:37:42.081Z,9.40
2023-03-05T16:40:12.685Z,9.40
2023-03-05T16:42:41.935Z,9.40
2023-03-05T16:45:10.849Z,9.40
2023-03-05T16:47:38.219Z,9.30
2023-03-05T16:50:06.497Z,9.30
2023-03-05T16:52:33.424Z,9.30
2023-03-05T16:55:00.770Z,9.30
2023-03-05T16:57:28.970Z,9.30
2023-03-05T16:59:57.451Z,9.40
2023-03-05T17:02:24.639Z,9.30
2023-03-05T17:04:53.391Z,9.30
2023-03-05T17:07:20.432Z,9.30
2023-03-05T17:09:48.304Z,9.30
2023-03-05T17:12:15.064Z,9.20
2023-03-05T17:14:42.615Z,9.20
2023-03-05T17:17:09.461Z,9.20
2023-03-05T17:19:36.252Z,9.20
2023-03-05T17:22:04.941Z,9.10
2023-03-05T17:24:33.312Z,9.20
2023-03-05T17:27:00.935Z,9.10
2023-03-05T17:29:27.882Z,9.10
2023-03-05T17:31:54.751Z,9.10
2023-03-05T17:34:33.248Z,9.10
2023-03-05T17:37:01.271Z,9.10
2023-03-05T17:39:28.209Z,9.10
2023-03-05T17:41:55.015Z,9.00
2023-03-05T17:44:22.242Z,9.10
2023-03-05T17:46:51.253Z,9.40
2023-03-05T17:49:17.974Z,9.50
2023-03-05T17:51:44.715Z,9.50
2023-03-05T17:54:11.912Z,9.50
2023-03-05T17:56:38.637Z,9.40
2023-03-05T17:59:09.134Z,9.40
2023-03-05T18:01:36.032Z,9.30
2023-03-05T18:04:03.286Z,9.30
2023-03-05T18:06:30.110Z,9.20
2023-03-05T18:08:56.937Z,9.20
2023-03-05T18:11:23.981Z,9.20
2023-03-05T18:13:51.183Z,9.10
2023-03-05T18:16:18.375Z,9.10
2023-03-05T18:18:45.773Z,9.00
2023-03-05T18:21:12.974Z,9.00
2023-03-05T18:23:57.406Z,9.00
2023-03-05T18:26:30.511Z,9.00
2023-03-05T18:29:00.447Z,9.00
2023-03-05T18:31:31.558Z,9.00
2023-03-05T18:34:18.112Z,8.90
2023-03-05T18:37:00.119Z,8.90
2023-03-05T18:39:36.099Z,8.80
2023-03-05T18:42:05.757Z,8.80
2023-03-05T18:44:53.302Z,8.70
2023-03-05T18:47:30.834Z,8.70
2023-03-05T18:52:36.257Z,8.70
2023-03-05T18:55:04.172Z,8.70
2023-03-05T18:57:31.653Z,8.70
2023-03-05T18:59:58.466Z,8.70
2023-03-05T19:02:28.471Z,8.70
2023-03-05T19:04:55.696Z,8.70
2023-03-05T19:07:23.074Z,8.70
2023-03-05T19:10:02.616Z,8.70
2023-03-05T19:12:35.620Z,8.70
2023-03-05T19:15:05.275Z,8.70
2023-03-05T19:17:33.315Z,8.70
2023-03-05T19:20:00.621Z,8.70
2023-03-05T19:22:28.598Z,8.70
2023-03-05T19:24:56.112Z,8.70
2023-03-05T19:27:23.410Z,8.60
2023-03-05T19:29:51.044Z,8.60
2023-03-05T19:32:18.424Z,8.60
2023-03-05T19:34:45.790Z,8.60
2023-03-05T19:37:13.543Z,8.60
2023-03-05T19:39:41.107Z,8.50
2023-03-05T19:42:08.944Z,8.50
2023-03-05T19:44:36.559Z,8.50
2023-03-05T19:47:04.185Z,8.50
2023-03-05T19:49:31.341Z,8.50
2023-03-05T19:51:58.768Z,8.50
2023-03-05T19:54:26.609Z,8.50
2023-03-05T19:56:55.905Z,8.40
2023-03-05T19:59:24.540Z,8.50
2023-03-05T20:01:52.443Z,8.50
2023-03-05T20:04:23.101Z,8.40
2023-03-05T20:06:51.292Z,8.40
2023-03-05T20:09:19.210Z,8.30
2023-03-05T20:11:47.487Z,8.30
2023-03-05T20:14:15.080Z,8.30
2023-03-05T20:16:43.685Z,8.30
2023-03-05T20:19:17.673Z,8.20
2023-03-05T20:21:46.639Z,8.20
2023-03-05T20:24:16.746Z,8.20
2023-03-05T20:26:47.127Z,8.10
2023-03-05T20:29:18.054Z,8.10
2023-03-05T20:31:46.443Z,8.10
2023-03-05T20:34:16.544Z,8.00
2023-03-05T20:36:44.774Z,8.00
2023-03-05T20:39:12.382Z,8.00
2023-03-05T20:41:41.317Z,8.00
2023-03-05T20:44:11.518Z,7.90
2023-03-05T20:46:49.991Z,7.90
2023-03-05T20:49:17.380Z,8.00
2023-03-05T20:51:48.139Z,7.90
2023-03-05T20:54:15.928Z,7.80
2023-03-05T20:56:43.974Z,7.80
2023-03-05T20:59:11.842Z,7.80
2023-03-05T21:01:41.052Z,7.80
2023-03-05T21:04:09.381Z,7.80
2023-03-05T21:06:37.993Z,7.80
2023-03-05T21:09:05.145Z,7.70
2023-03-05T21:11:32.758Z,7.70
2023-03-05T21:14:00.604Z,7.70
2023-03-05T21:16:28.470Z,7.70
2023-03-05T21:18:57.423Z,7.70
2023-03-05T21:21:24.837Z,7.70
2023-03-05T21:23:52.844Z,7.80
2023-03-05T21:26:20.621Z,7.70
2023-03-05T21:28:48.247Z,7.80
2023-03-05T21:31:21.709Z,7.80
2023-03-05T21:33:49.551Z,7.80
2023-03-05T21:36:19.289Z,7.80
2023-03-05T21:38:48.107Z,7.80
2023-03-05T21:41:18.433Z,7.80
2023-03-05T21:43:46.142Z,7.80
2023-03-05T21:46:13.662Z,7.80
2023-03-05T21:48:41.003Z,7.80
2023-03-05T21:51:09.376Z,7.80
2023-03-05T21:53:36.647Z,7.80
2023-03-05T21:56:18.281Z,7.80
2023-03-05T21:58:46.170Z,7.80
2023-03-05T22:01:15.389Z,7.80
2023-03-05T22:03:43.197Z,7.80
2023-03-05T22:06:12.836Z,7.80
2023-03-05T22:08:40.320Z,7.70
2023-03-05T22:11:16.388Z,7.70
2023-03-05T22:13:44.202Z,7.70
2023-03-05T22:16:12.567Z,7.70
2023-03-05T22:18:40.202Z,7.70
2023-03-05T22:21:18.499Z,7.70
2023-03-05T22:23:46.767Z,7.60
2023-03-05T22:26:14.341Z,7.60
2023-03-05T22:28:43.256Z,7.60
2023-03-05T22:31:10.809Z,7.60
2023-03-05T22:33:38.591Z,7.60
2023-03-05T22:36:11.580Z,7.60
2023-03-05T22:38:39.125Z,7.50
2023-03-05T22:41:11.660Z,7.50
2023-03-05T22:43:39.465Z,7.50
2023-03-05T22:46:18.642Z,7.40
2023-03-05T22:48:47.333Z,7.40
2023-03-05T22:51:16.884Z,7.40
2023-03-05T22:53:45.325Z,7.40
2023-03-05T22:56:16.610Z,7.50
2023-03-05T22:58:45.306Z,7.50
2023-03-05T23:01:25.028Z,7.40
2023-03-05T23:03:59.096Z,7.40
2023-03-05T23:06:26.814Z,7.40
2023-03-05T23:08:54.591Z,7.40
2023-03-05T23:11:22.469Z,7.40
2023-03-05T23:13:50.520Z,7.40
2023-03-05T23:16:18.070Z,7.40
2023-03-05T23:18:45.925Z,7.40
2023-03-05T23:21:14.337Z,7.40
2023-03-05T23:23:42.009Z,7.40
2023-03-05T23:26:10.187Z,7.40
2023-03-05T23:28:38.402Z,7.40
2023-03-05T23:31:06.158Z,7.40
2023-03-05T23:33:34.004Z,7.50
2023-03-05T23:36:01.854Z,7.50
2023-03-05T23:38:31.023Z,7.40
2023-03-05T23:41:01.571Z,7.40
2023-03-05T23:43:30.456Z,7.40
2023-03-05T23:45:57.995Z,7.50
2023-03-05T23:48:26.811Z,7.50
2023-03-05T23:50:55.592Z,7.50
2023-03-05T23:53:26.385Z,7.50
2023-03-05T23:55:54.147Z,7.50
2023-03-05T23:58:22.760Z,7.40
